sensor_id;sensor_type;location;lat;lon;timestamp;P1;durP1;ratioP1;P2;durP2;ratioP2
53207;SDS011;39093;52.788;6.940;2023-04-24T00:01:59;1.00;;;1.00;;
53207;SDS011;39093;52.788;6.940;2023-04-24T00:04:27;2.03;;;1.30;;
53207;SDS011;39093;52.788;6.940;2023-04-24T00:06:54;1.33;;;1.23;;
53207;SDS011;39093;52.788;6.940;2023-04-24T00:09:23;2.05;;;1.40;;
53207;SDS011;39093;52.788;6.940;2023-04-24T00:11:50;1.85;;;1.73;;
53207;SDS011;39093;52.788;6.940;2023-04-24T00:14:17;1.52;;;1.42;;
53207;SDS011;39093;52.788;6.940;2023-04-24T00:16:44;3.30;;;1.88;;
53207;SDS011;39093;52.788;6.940;2023-04-24T00:19:11;1.90;;;1.80;;
53207;SDS011;39093;52.788;6.940;2023-04-24T00:21:39;1.92;;;1.80;;
53207;SDS011;39093;52.788;6.940;2023-04-24T00:24:07;2.40;;;2.20;;
53207;SDS011;39093;52.788;6.940;2023-04-24T00:26:37;2.35;;;2.15;;
53207;SDS011;39093;52.788;6.940;2023-04-24T00:29:03;2.05;;;1.77;;
53207;SDS011;39093;52.788;6.940;2023-04-24T00:31:30;2.22;;;1.55;;
53207;SDS011;39093;52.788;6.940;2023-04-24T00:33:57;1.42;;;1.33;;
53207;SDS011;39093;52.788;6.940;2023-04-24T00:36:24;4.32;;;1.30;;
53207;SDS011;39093;52.788;6.940;2023-04-24T00:38:53;1.80;;;0.90;;
53207;SDS011;39093;52.788;6.940;2023-04-24T00:41:21;1.88;;;1.10;;
53207;SDS011;39093;52.788;6.940;2023-04-24T00:43:48;1.52;;;0.90;;
53207;SDS011;39093;52.788;6.940;2023-04-24T00:46:15;1.95;;;0.85;;
53207;SDS011;39093;52.788;6.940;2023-04-24T00:48:43;2.58;;;1.08;;
53207;SDS011;39093;52.788;6.940;2023-04-24T00:51:10;1.00;;;0.90;;
53207;SDS011;39093;52.788;6.940;2023-04-24T00:53:37;1.23;;;1.02;;
53207;SDS011;39093;52.788;6.940;2023-04-24T00:56:04;2.13;;;1.10;;
53207;SDS011;39093;52.788;6.940;2023-04-24T00:58:31;0.80;;;0.80;;
53207;SDS011;39093;52.788;6.940;2023-04-24T01:00:58;1.27;;;0.90;;
53207;SDS011;39093;52.788;6.940;2023-04-24T01:03:28;2.75;;;1.00;;
53207;SDS011;39093;52.788;6.940;2023-04-24T01:05:58;2.25;;;1.20;;
53207;SDS011;39093;52.788;6.940;2023-04-24T01:08:26;1.45;;;1.35;;
53207;SDS011;39093;52.788;6.940;2023-04-24T01:10:54;2.70;;;1.20;;
53207;SDS011;39093;52.788;6.940;2023-04-24T01:13:23;1.58;;;1.48;;
53207;SDS011;39093;52.788;6.940;2023-04-24T01:15:50;3.63;;;1.52;;
53207;SDS011;39093;52.788;6.940;2023-04-24T01:18:17;2.00;;;1.55;;
53207;SDS011;39093;52.788;6.940;2023-04-24T01:20:43;1.70;;;1.60;;
53207;SDS011;39093;52.788;6.940;2023-04-24T01:23:13;3.10;;;1.60;;
53207;SDS011;39093;52.788;6.940;2023-04-24T01:25:40;1.70;;;1.52;;
53207;SDS011;39093;52.788;6.940;2023-04-24T01:28:07;2.42;;;1.70;;
53207;SDS011;39093;52.788;6.940;2023-04-24T01:30:34;2.53;;;2.15;;
53207;SDS011;39093;52.788;6.940;2023-04-24T01:33:04;2.20;;;2.00;;
53207;SDS011;39093;52.788;6.940;2023-04-24T01:35:31;2.95;;;1.90;;
53207;SDS011;39093;52.788;6.940;2023-04-24T01:37:58;3.13;;;2.83;;
53207;SDS011;39093;52.788;6.940;2023-04-24T01:40:25;3.35;;;2.95;;
53207;SDS011;39093;52.788;6.940;2023-04-24T01:42:52;2.58;;;2.38;;
53207;SDS011;39093;52.788;6.940;2023-04-24T01:45:19;3.55;;;3.20;;
53207;SDS011;39093;52.788;6.940;2023-04-24T01:47:46;5.50;;;3.60;;
53207;SDS011;39093;52.788;6.940;2023-04-24T01:50:15;4.30;;;3.92;;
53207;SDS011;39093;52.788;6.940;2023-04-24T01:52:42;5.50;;;5.00;;
53207;SDS011;39093;52.788;6.940;2023-04-24T01:55:09;4.47;;;4.05;;
53207;SDS011;39093;52.788;6.940;2023-04-24T01:57:36;5.72;;;5.22;;
53207;SDS011;39093;52.788;6.940;2023-04-24T02:00:03;7.60;;;5.25;;
53207;SDS011;39093;52.788;6.940;2023-04-24T02:02:31;6.85;;;6.25;;
53207;SDS011;39093;52.788;6.940;2023-04-24T02:04:59;6.93;;;5.97;;
53207;SDS011;39093;52.788;6.940;2023-04-24T02:07:26;5.97;;;5.47;;
53207;SDS011;39093;52.788;6.940;2023-04-24T02:09:53;6.43;;;5.82;;
53207;SDS011;39093;52.788;6.940;2023-04-24T02:12:20;6.95;;;6.00;;
53207;SDS011;39093;52.788;6.940;2023-04-24T02:14:46;6.63;;;6.00;;
53207;SDS011;39093;52.788;6.940;2023-04-24T02:17:13;8.25;;;5.55;;
53207;SDS011;39093;52.788;6.940;2023-04-24T02:19:41;5.43;;;4.93;;
53207;SDS011;39093;52.788;6.940;2023-04-24T02:22:09;8.55;;;5.25;;
53207;SDS011;39093;52.788;6.940;2023-04-24T02:24:37;5.95;;;4.35;;
53207;SDS011;39093;52.788;6.940;2023-04-24T02:27:04;8.98;;;4.80;;
53207;SDS011;39093;52.788;6.940;2023-04-24T02:29:31;5.88;;;4.97;;
53207;SDS011;39093;52.788;6.940;2023-04-24T02:31:58;6.85;;;4.45;;
53207;SDS011;39093;52.788;6.940;2023-04-24T02:34:25;5.03;;;4.47;;
53207;SDS011;39093;52.788;6.940;2023-04-24T02:36:52;5.85;;;4.43;;
53207;SDS011;39093;52.788;6.940;2023-04-24T02:39:20;6.68;;;4.43;;
53207;SDS011;39093;52.788;6.940;2023-04-24T02:41:47;4.70;;;4.30;;
53207;SDS011;39093;52.788;6.940;2023-04-24T02:44:14;4.57;;;4.18;;
53207;SDS011;39093;52.788;6.940;2023-04-24T02:46:41;5.93;;;4.43;;
53207;SDS011;39093;52.788;6.940;2023-04-24T02:49:08;4.35;;;3.95;;
53207;SDS011;39093;52.788;6.940;2023-04-24T02:51:37;4.40;;;3.78;;
53207;SDS011;39093;52.788;6.940;2023-04-24T02:54:10;3.20;;;2.83;;
53207;SDS011;39093;52.788;6.940;2023-04-24T02:56:37;3.47;;;3.05;;
53207;SDS011;39093;52.788;6.940;2023-04-24T02:59:04;4.28;;;3.55;;
53207;SDS011;39093;52.788;6.940;2023-04-24T03:01:31;3.75;;;3.03;;
53207;SDS011;39093;52.788;6.940;2023-04-24T03:03:58;3.80;;;3.47;;
53207;SDS011;39093;52.788;6.940;2023-04-24T03:06:25;4.00;;;3.10;;
53207;SDS011;39093;52.788;6.940;2023-04-24T03:08:53;3.47;;;3.10;;
53207;SDS011;39093;52.788;6.940;2023-04-24T03:11:20;3.30;;;3.00;;
53207;SDS011;39093;52.788;6.940;2023-04-24T03:13:47;3.70;;;3.38;;
53207;SDS011;39093;52.788;6.940;2023-04-24T03:16:14;3.75;;;3.40;;
53207;SDS011;39093;52.788;6.940;2023-04-24T03:18:41;3.65;;;3.30;;
53207;SDS011;39093;52.788;6.940;2023-04-24T03:21:08;5.43;;;3.90;;
53207;SDS011;39093;52.788;6.940;2023-04-24T03:23:35;3.63;;;3.33;;
53207;SDS011;39093;52.788;6.940;2023-04-24T03:26:02;3.50;;;3.20;;
53207;SDS011;39093;52.788;6.940;2023-04-24T03:28:28;4.07;;;3.30;;
53207;SDS011;39093;52.788;6.940;2023-04-24T03:30:55;4.30;;;3.85;;
53207;SDS011;39093;52.788;6.940;2023-04-24T03:33:22;3.50;;;3.15;;
53207;SDS011;39093;52.788;6.940;2023-04-24T03:35:49;5.07;;;3.70;;
53207;SDS011;39093;52.788;6.940;2023-04-24T03:38:16;5.13;;;3.80;;
53207;SDS011;39093;52.788;6.940;2023-04-24T03:40:43;4.22;;;3.28;;
53207;SDS011;39093;52.788;6.940;2023-04-24T03:43:10;5.65;;;4.45;;
53207;SDS011;39093;52.788;6.940;2023-04-24T03:45:36;4.65;;;4.25;;
53207;SDS011;39093;52.788;6.940;2023-04-24T03:48:03;4.22;;;3.92;;
53207;SDS011;39093;52.788;6.940;2023-04-24T03:50:30;4.68;;;4.28;;
53207;SDS011;39093;52.788;6.940;2023-04-24T03:52:57;4.57;;;4.20;;
53207;SDS011;39093;52.788;6.940;2023-04-24T03:55:24;4.78;;;4.32;;
53207;SDS011;39093;52.788;6.940;2023-04-24T03:57:51;4.53;;;4.15;;
53207;SDS011;39093;52.788;6.940;2023-04-24T04:00:18;4.97;;;4.03;;
53207;SDS011;39093;52.788;6.940;2023-04-24T04:02:45;5.35;;;4.70;;
53207;SDS011;39093;52.788;6.940;2023-04-24T04:05:13;4.75;;;4.35;;
53207;SDS011;39093;52.788;6.940;2023-04-24T04:07:40;4.20;;;3.80;;
53207;SDS011;39093;52.788;6.940;2023-04-24T04:10:07;4.28;;;3.70;;
53207;SDS011;39093;52.788;6.940;2023-04-24T04:12:34;4.75;;;4.15;;
53207;SDS011;39093;52.788;6.940;2023-04-24T04:15:00;4.72;;;4.22;;
53207;SDS011;39093;52.788;6.940;2023-04-24T04:17:27;9.52;;;4.60;;
53207;SDS011;39093;52.788;6.940;2023-04-24T04:19:54;4.70;;;4.30;;
53207;SDS011;39093;52.788;6.940;2023-04-24T04:22:22;4.55;;;4.15;;
53207;SDS011;39093;52.788;6.940;2023-04-24T04:24:49;4.90;;;4.50;;
53207;SDS011;39093;52.788;6.940;2023-04-24T04:27:17;7.95;;;4.82;;
53207;SDS011;39093;52.788;6.940;2023-04-24T04:29:44;5.05;;;4.57;;
53207;SDS011;39093;52.788;6.940;2023-04-24T04:32:13;5.95;;;5.35;;
53207;SDS011;39093;52.788;6.940;2023-04-24T04:34:41;5.88;;;5.30;;
53207;SDS011;39093;52.788;6.940;2023-04-24T04:37:08;6.20;;;5.70;;
53207;SDS011;39093;52.788;6.940;2023-04-24T04:39:36;6.93;;;6.10;;
53207;SDS011;39093;52.788;6.940;2023-04-24T04:42:03;6.60;;;5.72;;
53207;SDS011;39093;52.788;6.940;2023-04-24T04:44:30;7.63;;;6.78;;
53207;SDS011;39093;52.788;6.940;2023-04-24T04:46:57;7.22;;;6.13;;
53207;SDS011;39093;52.788;6.940;2023-04-24T04:49:25;5.78;;;5.28;;
53207;SDS011;39093;52.788;6.940;2023-04-24T04:51:54;6.95;;;6.25;;
53207;SDS011;39093;52.788;6.940;2023-04-24T04:54:21;6.95;;;6.25;;
53207;SDS011;39093;52.788;6.940;2023-04-24T04:56:51;6.45;;;5.85;;
53207;SDS011;39093;52.788;6.940;2023-04-24T04:59:18;7.75;;;6.18;;
53207;SDS011;39093;52.788;6.940;2023-04-24T05:01:45;6.63;;;6.00;;
53207;SDS011;39093;52.788;6.940;2023-04-24T05:04:12;8.20;;;7.28;;
53207;SDS011;39093;52.788;6.940;2023-04-24T05:06:40;6.88;;;6.28;;
53207;SDS011;39093;52.788;6.940;2023-04-24T05:09:06;6.28;;;5.70;;
53207;SDS011;39093;52.788;6.940;2023-04-24T05:11:34;7.55;;;6.50;;
53207;SDS011;39093;52.788;6.940;2023-04-24T05:14:01;7.45;;;5.88;;
53207;SDS011;39093;52.788;6.940;2023-04-24T05:16:28;7.65;;;6.45;;
53207;SDS011;39093;52.788;6.940;2023-04-24T05:18:55;7.53;;;6.82;;
53207;SDS011;39093;52.788;6.940;2023-04-24T05:21:22;5.93;;;5.00;;
53207;SDS011;39093;52.788;6.940;2023-04-24T05:23:49;5.60;;;5.10;;
53207;SDS011;39093;52.788;6.940;2023-04-24T05:26:15;6.00;;;5.50;;
53207;SDS011;39093;52.788;6.940;2023-04-24T05:28:44;5.95;;;5.45;;
53207;SDS011;39093;52.788;6.940;2023-04-24T05:31:10;6.15;;;5.53;;
53207;SDS011;39093;52.788;6.940;2023-04-24T05:33:38;4.80;;;4.40;;
53207;SDS011;39093;52.788;6.940;2023-04-24T05:36:05;4.32;;;3.92;;
53207;SDS011;39093;52.788;6.940;2023-04-24T05:38:33;3.97;;;3.60;;
53207;SDS011;39093;52.788;6.940;2023-04-24T05:41:03;3.47;;;3.13;;
53207;SDS011;39093;52.788;6.940;2023-04-24T05:43:29;3.03;;;2.72;;
53207;SDS011;39093;52.788;6.940;2023-04-24T05:45:56;3.03;;;2.72;;
53207;SDS011;39093;52.788;6.940;2023-04-24T05:48:23;2.78;;;2.58;;
53207;SDS011;39093;52.788;6.940;2023-04-24T05:50:50;2.58;;;2.38;;
53207;SDS011;39093;52.788;6.940;2023-04-24T05:53:18;3.97;;;2.50;;
53207;SDS011;39093;52.788;6.940;2023-04-24T05:55:45;2.75;;;2.13;;
53207;SDS011;39093;52.788;6.940;2023-04-24T05:58:13;3.28;;;2.58;;
53207;SDS011;39093;52.788;6.940;2023-04-24T06:00:40;3.08;;;2.83;;
53207;SDS011;39093;52.788;6.940;2023-04-24T06:03:08;4.03;;;3.03;;
53207;SDS011;39093;52.788;6.940;2023-04-24T06:05:36;3.30;;;3.00;;
53207;SDS011;39093;52.788;6.940;2023-04-24T06:08:03;4.05;;;3.65;;
53207;SDS011;39093;52.788;6.940;2023-04-24T06:10:30;3.30;;;3.00;;
53207;SDS011;39093;52.788;6.940;2023-04-24T06:12:57;3.03;;;2.60;;
53207;SDS011;39093;52.788;6.940;2023-04-24T06:15:27;4.93;;;2.55;;
53207;SDS011;39093;52.788;6.940;2023-04-24T06:17:56;2.58;;;2.13;;
53207;SDS011;39093;52.788;6.940;2023-04-24T06:20:23;2.95;;;2.45;;
53207;SDS011;39093;52.788;6.940;2023-04-24T06:22:51;2.30;;;2.08;;
53207;SDS011;39093;52.788;6.940;2023-04-24T06:25:18;2.17;;;1.77;;
53207;SDS011;39093;52.788;6.940;2023-04-24T06:27:45;3.50;;;2.40;;
53207;SDS011;39093;52.788;6.940;2023-04-24T06:30:12;1.60;;;1.50;;
53207;SDS011;39093;52.788;6.940;2023-04-24T06:32:39;3.03;;;1.70;;
53207;SDS011;39093;52.788;6.940;2023-04-24T06:35:09;2.33;;;1.85;;
53207;SDS011;39093;52.788;6.940;2023-04-24T06:37:41;4.60;;;1.65;;
53207;SDS011;39093;52.788;6.940;2023-04-24T06:40:09;3.03;;;1.60;;
53207;SDS011;39093;52.788;6.940;2023-04-24T06:42:36;2.67;;;1.60;;
53207;SDS011;39093;52.788;6.940;2023-04-24T06:45:03;6.82;;;1.92;;
53207;SDS011;39093;52.788;6.940;2023-04-24T06:47:31;2.22;;;1.70;;
53207;SDS011;39093;52.788;6.940;2023-04-24T06:49:58;2.70;;;2.13;;
53207;SDS011;39093;52.788;6.940;2023-04-24T06:52:25;2.58;;;2.38;;
53207;SDS011;39093;52.788;6.940;2023-04-24T06:54:52;3.72;;;2.40;;
53207;SDS011;39093;52.788;6.940;2023-04-24T06:57:26;2.22;;;1.80;;
53207;SDS011;39093;52.788;6.940;2023-04-24T06:59:52;3.05;;;2.30;;
53207;SDS011;39093;52.788;6.940;2023-04-24T07:02:21;4.10;;;2.00;;
53207;SDS011;39093;52.788;6.940;2023-04-24T07:04:48;3.42;;;2.72;;
53207;SDS011;39093;52.788;6.940;2023-04-24T07:07:15;4.50;;;2.60;;
53207;SDS011;39093;52.788;6.940;2023-04-24T07:09:42;3.05;;;2.55;;
53207;SDS011;39093;52.788;6.940;2023-04-24T07:12:11;4.28;;;2.75;;
53207;SDS011;39093;52.788;6.940;2023-04-24T07:14:38;3.92;;;2.53;;
53207;SDS011;39093;52.788;6.940;2023-04-24T07:17:06;2.80;;;2.35;;
53207;SDS011;39093;52.788;6.940;2023-04-24T07:19:33;3.25;;;2.42;;
53207;SDS011;39093;52.788;6.940;2023-04-24T07:22:01;2.90;;;2.50;;
53207;SDS011;39093;52.788;6.940;2023-04-24T07:24:29;4.30;;;2.90;;
53207;SDS011;39093;52.788;6.940;2023-04-24T07:26:58;5.50;;;2.90;;
53207;SDS011;39093;52.788;6.940;2023-04-24T07:29:27;6.68;;;2.80;;
53207;SDS011;39093;52.788;6.940;2023-04-24T07:31:54;3.90;;;2.70;;
53207;SDS011;39093;52.788;6.940;2023-04-24T07:34:21;3.45;;;2.13;;
53207;SDS011;39093;52.788;6.940;2023-04-24T07:36:48;3.83;;;2.85;;
53207;SDS011;39093;52.788;6.940;2023-04-24T07:39:15;8.65;;;3.08;;
53207;SDS011;39093;52.788;6.940;2023-04-24T07:41:42;6.60;;;2.10;;
53207;SDS011;39093;52.788;6.940;2023-04-24T07:44:08;3.97;;;1.30;;
53207;SDS011;39093;52.788;6.940;2023-04-24T07:46:36;1.52;;;1.08;;
53207;SDS011;39093;52.788;6.940;2023-04-24T07:49:03;4.53;;;1.35;;
53207;SDS011;39093;52.788;6.940;2023-04-24T07:51:39;4.90;;;1.60;;
53207;SDS011;39093;52.788;6.940;2023-04-24T07:54:07;3.72;;;1.38;;
53207;SDS011;39093;52.788;6.940;2023-04-24T07:56:34;5.10;;;1.98;;
53207;SDS011;39093;52.788;6.940;2023-04-24T07:59:05;1.92;;;1.75;;
53207;SDS011;39093;52.788;6.940;2023-04-24T08:01:32;2.92;;;1.95;;
53207;SDS011;39093;52.788;6.940;2023-04-24T08:03:59;4.97;;;2.53;;
53207;SDS011;39093;52.788;6.940;2023-04-24T08:06:27;5.72;;;2.95;;
53207;SDS011;39093;52.788;6.940;2023-04-24T08:08:57;6.63;;;2.95;;
53207;SDS011;39093;52.788;6.940;2023-04-24T08:11:24;5.30;;;3.08;;
53207;SDS011;39093;52.788;6.940;2023-04-24T08:13:51;6.38;;;3.30;;
53207;SDS011;39093;52.788;6.940;2023-04-24T08:16:18;3.30;;;2.50;;
53207;SDS011;39093;52.788;6.940;2023-04-24T08:18:46;4.43;;;2.67;;
53207;SDS011;39093;52.788;6.940;2023-04-24T08:21:13;10.80;;;3.95;;
53207;SDS011;39093;52.788;6.940;2023-04-24T08:23:43;6.70;;;3.60;;
53207;SDS011;39093;52.788;6.940;2023-04-24T08:26:11;7.80;;;3.05;;
53207;SDS011;39093;52.788;6.940;2023-04-24T08:28:38;3.33;;;2.55;;
53207;SDS011;39093;52.788;6.940;2023-04-24T08:31:05;7.28;;;2.90;;
53207;SDS011;39093;52.788;6.940;2023-04-24T08:33:33;7.90;;;3.78;;
53207;SDS011;39093;52.788;6.940;2023-04-24T08:36:02;7.55;;;3.70;;
53207;SDS011;39093;52.788;6.940;2023-04-24T08:38:30;3.42;;;3.00;;
53207;SDS011;39093;52.788;6.940;2023-04-24T08:40:58;4.25;;;3.42;;
53207;SDS011;39093;52.788;6.940;2023-04-24T08:43:27;8.10;;;3.10;;
53207;SDS011;39093;52.788;6.940;2023-04-24T08:45:57;3.65;;;2.45;;
53207;SDS011;39093;52.788;6.940;2023-04-24T08:48:25;3.15;;;2.30;;
53207;SDS011;39093;52.788;6.940;2023-04-24T08:50:57;4.63;;;2.30;;
53207;SDS011;39093;52.788;6.940;2023-04-24T08:53:25;3.83;;;2.33;;
53207;SDS011;39093;52.788;6.940;2023-04-24T08:55:54;7.45;;;2.70;;
53207;SDS011;39093;52.788;6.940;2023-04-24T08:58:22;9.40;;;3.47;;
53207;SDS011;39093;52.788;6.940;2023-04-24T09:00:54;4.28;;;2.90;;
53207;SDS011;39093;52.788;6.940;2023-04-24T09:03:21;4.75;;;2.80;;
53207;SDS011;39093;52.788;6.940;2023-04-24T09:05:49;7.75;;;3.20;;
53207;SDS011;39093;52.788;6.940;2023-04-24T09:08:17;6.93;;;3.33;;
53207;SDS011;39093;52.788;6.940;2023-04-24T09:10:45;8.32;;;3.53;;
53207;SDS011;39093;52.788;6.940;2023-04-24T09:13:16;9.70;;;4.60;;
53207;SDS011;39093;52.788;6.940;2023-04-24T09:15:44;18.77;;;7.22;;
53207;SDS011;39093;52.788;6.940;2023-04-24T09:18:11;17.30;;;8.35;;
53207;SDS011;39093;52.788;6.940;2023-04-24T09:23:31;16.98;;;9.25;;
53207;SDS011;39093;52.788;6.940;2023-04-24T09:26:22;18.35;;;10.55;;
53207;SDS011;39093;52.788;6.940;2023-04-24T09:28:49;28.00;;;11.48;;
53207;SDS011;39093;52.788;6.940;2023-04-24T09:31:18;25.42;;;11.15;;
53207;SDS011;39093;52.788;6.940;2023-04-24T09:33:55;19.05;;;10.25;;
53207;SDS011;39093;52.788;6.940;2023-04-24T09:36:37;17.77;;;9.98;;
53207;SDS011;39093;52.788;6.940;2023-04-24T09:39:14;20.77;;;11.07;;
53207;SDS011;39093;52.788;6.940;2023-04-24T09:41:45;24.63;;;11.43;;
53207;SDS011;39093;52.788;6.940;2023-04-24T09:44:17;22.63;;;10.68;;
53207;SDS011;39093;52.788;6.940;2023-04-24T09:46:45;22.60;;;11.93;;
53207;SDS011;39093;52.788;6.940;2023-04-24T09:49:20;18.23;;;11.43;;
53207;SDS011;39093;52.788;6.940;2023-04-24T09:52:04;19.52;;;12.80;;
53207;SDS011;39093;52.788;6.940;2023-04-24T09:54:35;28.75;;;15.10;;
53207;SDS011;39093;52.788;6.940;2023-04-24T09:57:03;30.00;;;15.90;;
53207;SDS011;39093;52.788;6.940;2023-04-24T09:59:31;32.40;;;17.00;;
53207;SDS011;39093;52.788;6.940;2023-04-24T10:01:59;24.77;;;15.88;;
53207;SDS011;39093;52.788;6.940;2023-04-24T10:04:27;31.25;;;18.25;;
53207;SDS011;39093;52.788;6.940;2023-04-24T10:06:56;32.15;;;19.10;;
53207;SDS011;39093;52.788;6.940;2023-04-24T10:09:24;36.88;;;18.80;;
53207;SDS011;39093;52.788;6.940;2023-04-24T10:11:52;32.92;;;18.67;;
53207;SDS011;39093;52.788;6.940;2023-04-24T10:14:21;33.92;;;19.27;;
53207;SDS011;39093;52.788;6.940;2023-04-24T10:16:51;30.98;;;17.08;;
53207;SDS011;39093;52.788;6.940;2023-04-24T10:19:20;34.90;;;18.00;;
53207;SDS011;39093;52.788;6.940;2023-04-24T10:21:50;38.65;;;18.80;;
53207;SDS011;39093;52.788;6.940;2023-04-24T10:24:18;30.13;;;17.92;;
53207;SDS011;39093;52.788;6.940;2023-04-24T10:26:48;30.15;;;16.30;;
53207;SDS011;39093;52.788;6.940;2023-04-24T10:29:16;28.67;;;15.90;;
53207;SDS011;39093;52.788;6.940;2023-04-24T10:31:48;29.50;;;16.02;;
53207;SDS011;39093;52.788;6.940;2023-04-24T10:34:15;26.38;;;14.77;;
53207;SDS011;39093;52.788;6.940;2023-04-24T10:36:48;21.15;;;14.07;;
53207;SDS011;39093;52.788;6.940;2023-04-24T10:39:21;27.20;;;14.07;;
53207;SDS011;39093;52.788;6.940;2023-04-24T10:41:53;23.50;;;13.77;;
53207;SDS011;39093;52.788;6.940;2023-04-24T10:44:24;26.02;;;13.35;;
53207;SDS011;39093;52.788;6.940;2023-04-24T10:46:54;22.60;;;13.63;;
53207;SDS011;39093;52.788;6.940;2023-04-24T10:49:28;21.58;;;13.00;;
53207;SDS011;39093;52.788;6.940;2023-04-24T10:52:00;17.67;;;9.50;;
53207;SDS011;39093;52.788;6.940;2023-04-24T10:59:49;21.70;;;10.38;;
53207;SDS011;39093;52.788;6.940;2023-04-24T11:02:39;22.90;;;9.57;;
53207;SDS011;39093;52.788;6.940;2023-04-24T11:05:10;22.10;;;9.88;;
53207;SDS011;39093;52.788;6.940;2023-04-24T11:10:40;25.77;;;10.13;;
53207;SDS011;39093;52.788;6.940;2023-04-24T11:13:23;15.70;;;8.57;;
53207;SDS011;39093;52.788;6.940;2023-04-24T11:16:15;22.52;;;9.10;;
53207;SDS011;39093;52.788;6.940;2023-04-24T11:18:42;18.55;;;6.75;;
53207;SDS011;39093;52.788;6.940;2023-04-24T11:21:17;13.48;;;5.82;;
53207;SDS011;39093;52.788;6.940;2023-04-24T11:23:45;22.70;;;6.40;;
53207;SDS011;39093;52.788;6.940;2023-04-24T11:26:14;20.35;;;6.25;;
53207;SDS011;39093;52.788;6.940;2023-04-24T11:29:07;20.25;;;4.65;;
53207;SDS011;39093;52.788;6.940;2023-04-24T11:31:38;20.60;;;4.88;;
53207;SDS011;39093;52.788;6.940;2023-04-24T11:34:08;14.88;;;4.78;;
53207;SDS011;39093;52.788;6.940;2023-04-24T11:36:36;19.73;;;5.07;;
53207;SDS011;39093;52.788;6.940;2023-04-24T11:39:03;16.55;;;5.30;;
53207;SDS011;39093;52.788;6.940;2023-04-24T11:41:30;14.25;;;4.60;;
53207;SDS011;39093;52.788;6.940;2023-04-24T11:43:58;18.00;;;5.18;;
53207;SDS011;39093;52.788;6.940;2023-04-24T11:46:29;21.48;;;4.53;;
53207;SDS011;39093;52.788;6.940;2023-04-24T11:48:57;9.88;;;3.35;;
53207;SDS011;39093;52.788;6.940;2023-04-24T11:51:26;12.48;;;3.45;;
53207;SDS011;39093;52.788;6.940;2023-04-24T11:54:02;11.35;;;4.45;;
53207;SDS011;39093;52.788;6.940;2023-04-24T11:56:33;11.40;;;2.78;;
53207;SDS011;39093;52.788;6.940;2023-04-24T11:59:00;10.82;;;3.30;;
53207;SDS011;39093;52.788;6.940;2023-04-24T12:01:42;15.35;;;3.33;;
53207;SDS011;39093;52.788;6.940;2023-04-24T12:04:10;11.73;;;2.55;;
53207;SDS011;39093;52.788;6.940;2023-04-24T12:06:37;16.13;;;3.70;;
53207;SDS011;39093;52.788;6.940;2023-04-24T12:09:04;8.43;;;3.88;;
53207;SDS011;39093;52.788;6.940;2023-04-24T12:11:52;14.90;;;3.00;;
53207;SDS011;39093;52.788;6.940;2023-04-24T12:14:20;13.75;;;4.05;;
53207;SDS011;39093;52.788;6.940;2023-04-24T12:16:48;12.38;;;3.53;;
53207;SDS011;39093;52.788;6.940;2023-04-24T12:19:22;14.75;;;4.00;;
53207;SDS011;39093;52.788;6.940;2023-04-24T12:21:59;10.32;;;3.40;;
53207;SDS011;39093;52.788;6.940;2023-04-24T12:24:31;9.95;;;2.75;;
53207;SDS011;39093;52.788;6.940;2023-04-24T12:26:58;11.00;;;2.72;;
53207;SDS011;39093;52.788;6.940;2023-04-24T12:29:27;11.88;;;3.22;;
53207;SDS011;39093;52.788;6.940;2023-04-24T12:31:54;9.32;;;3.42;;
53207;SDS011;39093;52.788;6.940;2023-04-24T12:34:22;9.75;;;3.05;;
53207;SDS011;39093;52.788;6.940;2023-04-24T12:36:51;13.88;;;3.03;;
53207;SDS011;39093;52.788;6.940;2023-04-24T12:39:18;16.92;;;2.97;;
53207;SDS011;39093;52.788;6.940;2023-04-24T12:41:55;7.60;;;2.15;;
53207;SDS011;39093;52.788;6.940;2023-04-24T12:44:31;9.10;;;2.63;;
53207;SDS011;39093;52.788;6.940;2023-04-24T12:47:01;11.50;;;2.47;;
53207;SDS011;39093;52.788;6.940;2023-04-24T12:49:29;9.23;;;2.70;;
53207;SDS011;39093;52.788;6.940;2023-04-24T12:51:56;14.02;;;2.40;;
53207;SDS011;39093;52.788;6.940;2023-04-24T12:54:23;10.30;;;1.98;;
53207;SDS011;39093;52.788;6.940;2023-04-24T12:56:50;8.20;;;1.75;;
53207;SDS011;39093;52.788;6.940;2023-04-24T12:59:17;9.38;;;2.13;;
53207;SDS011;39093;52.788;6.940;2023-04-24T13:01:44;5.57;;;1.88;;
53207;SDS011;39093;52.788;6.940;2023-04-24T13:04:11;5.93;;;1.83;;
53207;SDS011;39093;52.788;6.940;2023-04-24T13:06:38;7.70;;;2.47;;
53207;SDS011;39093;52.788;6.940;2023-04-24T13:09:05;5.32;;;1.95;;
53207;SDS011;39093;52.788;6.940;2023-04-24T13:11:32;6.78;;;2.05;;
53207;SDS011;39093;52.788;6.940;2023-04-24T13:13:59;6.55;;;1.23;;
53207;SDS011;39093;52.788;6.940;2023-04-24T13:16:26;4.00;;;1.42;;
53207;SDS011;39093;52.788;6.940;2023-04-24T13:18:53;4.45;;;0.93;;
53207;SDS011;39093;52.788;6.940;2023-04-24T13:21:20;4.15;;;0.95;;
53207;SDS011;39093;52.788;6.940;2023-04-24T13:23:46;3.78;;;0.77;;
53207;SDS011;39093;52.788;6.940;2023-04-24T13:26:14;5.18;;;1.02;;
53207;SDS011;39093;52.788;6.940;2023-04-24T13:28:40;2.97;;;1.10;;
53207;SDS011;39093;52.788;6.940;2023-04-24T13:31:07;1.73;;;0.98;;
53207;SDS011;39093;52.788;6.940;2023-04-24T13:33:34;2.30;;;0.80;;
53207;SDS011;39093;52.788;6.940;2023-04-24T13:36:02;5.35;;;1.00;;
53207;SDS011;39093;52.788;6.940;2023-04-24T13:38:29;3.33;;;0.80;;
53207;SDS011;39093;52.788;6.940;2023-04-24T13:40:55;4.75;;;0.90;;
53207;SDS011;39093;52.788;6.940;2023-04-24T13:43:23;3.00;;;1.17;;
53207;SDS011;39093;52.788;6.940;2023-04-24T13:45:50;7.03;;;0.95;;
53207;SDS011;39093;52.788;6.940;2023-04-24T13:48:17;4.88;;;1.40;;
53207;SDS011;39093;52.788;6.940;2023-04-24T13:50:44;4.85;;;1.30;;
53207;SDS011;39093;52.788;6.940;2023-04-24T13:53:14;8.07;;;1.40;;
53207;SDS011;39093;52.788;6.940;2023-04-24T13:55:41;6.45;;;1.15;;
53207;SDS011;39093;52.788;6.940;2023-04-24T13:58:08;8.90;;;1.33;;
53207;SDS011;39093;52.788;6.940;2023-04-24T14:00:35;3.58;;;1.08;;
53207;SDS011;39093;52.788;6.940;2023-04-24T14:03:02;7.55;;;1.55;;
53207;SDS011;39093;52.788;6.940;2023-04-24T14:05:30;9.80;;;1.90;;
53207;SDS011;39093;52.788;6.940;2023-04-24T14:07:56;9.32;;;1.73;;
53207;SDS011;39093;52.788;6.940;2023-04-24T14:10:23;6.68;;;1.67;;
53207;SDS011;39093;52.788;6.940;2023-04-24T14:12:51;8.55;;;1.42;;
53207;SDS011;39093;52.788;6.940;2023-04-24T14:15:19;7.47;;;1.77;;
53207;SDS011;39093;52.788;6.940;2023-04-24T14:17:47;12.20;;;1.77;;
53207;SDS011;39093;52.788;6.940;2023-04-24T14:20:14;9.43;;;1.40;;
53207;SDS011;39093;52.788;6.940;2023-04-24T14:22:41;9.25;;;1.60;;
53207;SDS011;39093;52.788;6.940;2023-04-24T14:25:08;15.25;;;1.77;;
53207;SDS011;39093;52.788;6.940;2023-04-24T14:27:36;8.02;;;1.10;;
53207;SDS011;39093;52.788;6.940;2023-04-24T14:30:07;8.45;;;1.60;;
53207;SDS011;39093;52.788;6.940;2023-04-24T14:32:34;5.03;;;1.23;;
53207;SDS011;39093;52.788;6.940;2023-04-24T14:35:02;4.07;;;1.17;;
53207;SDS011;39093;52.788;6.940;2023-04-24T14:37:29;5.78;;;1.08;;
53207;SDS011;39093;52.788;6.940;2023-04-24T14:39:56;4.85;;;1.20;;
53207;SDS011;39093;52.788;6.940;2023-04-24T14:42:43;5.97;;;1.08;;
53207;SDS011;39093;52.788;6.940;2023-04-24T14:45:10;3.83;;;0.95;;
53207;SDS011;39093;52.788;6.940;2023-04-24T14:47:37;7.05;;;1.50;;
53207;SDS011;39093;52.788;6.940;2023-04-24T14:50:04;6.57;;;1.63;;
53207;SDS011;39093;52.788;6.940;2023-04-24T14:52:32;5.22;;;1.45;;
53207;SDS011;39093;52.788;6.940;2023-04-24T14:54:59;6.80;;;1.35;;
53207;SDS011;39093;52.788;6.940;2023-04-24T14:57:26;11.00;;;1.95;;
53207;SDS011;39093;52.788;6.940;2023-04-24T14:59:54;9.52;;;2.00;;
53207;SDS011;39093;52.788;6.940;2023-04-24T15:02:21;7.07;;;1.60;;